Terminal Aerodrome Forecast
Issued by NWS

Home | Current Version | Previous Version | Text Only | Print | Product List | Glossary On
Versions: 1 2 3 4 5 6 7 8 9 10 11 12 13 14 15 16 17
000
FTAK31 PAJN 230300 AAA
TAFAGY
TAF AMD
PAGY 230306Z 2303/2324 21010KT P6SM VCSH BKN060
     FM230600 21010KT P6SM -SHRA BKN040 OVC060
     FM231200 21008KT P6SM VCSH SCT030 BKN040 OVC060
     FM231800 21010G20KT P6SM VCSH SCT015 BKN030 OVC050
      AMD LTD TO CLD VIS AND WIND=

USA.gov is the U.S. government's official web portal to all federal, state and local government web resources and services.